Time;durP1;ratioP1;P1;durP2;ratioP2;P2;SDS_P1;SDS_P2;PMS_P1;PMS_P2;Temp;Humidity;BMP_temperature;BMP_pressure;BME280_temperature;BME280_humidity;BME280_pressure;Samples;Min_cycle;Max_cycle;Signal;HPM_P1;HPM_P2
2022/06/16 00:01:50;;;;;;;4.60;3.30;;;;;;;17.58;54.61;101090.63;4981059;23;20279;-72
2022/06/16 00:04:17;;;;;;;3.90;3.00;;;;;;;17.55;54.90;101090.91;4962728;28;20225;-72
2022/06/16 00:06:43;;;;;;;4.53;2.93;;;;;;;17.51;55.05;101077.84;4965558;28;20210;-72
2022/06/16 00:09:10;;;;;;;3.10;2.80;;;;;;;17.47;55.24;101079.94;4957605;28;20220;-72
2022/06/16 00:11:38;;;;;;;2.87;2.57;;;;;;;17.44;55.31;101076.63;4959456;28;20202;-72
2022/06/16 00:14:05;;;;;;;4.87;2.90;;;;;;;17.40;55.54;101080.56;4949794;28;20208;-71
2022/06/16 00:16:32;;;;;;;4.90;3.27;;;;;;;17.34;55.53;101085.53;4950780;28;20245;-72
2022/06/16 00:18:59;;;;;;;4.60;2.80;;;;;;;17.27;55.79;101070.84;4950744;28;20220;-71
2022/06/16 00:21:26;;;;;;;3.93;3.10;;;;;;;17.22;55.83;101061.44;4944638;28;20231;-71
2022/06/16 00:23:52;;;;;;;4.70;2.87;;;;;;;17.14;55.94;101055.88;4946756;28;20238;-72
2022/06/16 00:26:22;;;;;;;3.53;2.83;;;;;;;17.08;56.04;101048.31;4942227;28;20221;-71
2022/06/16 00:28:50;;;;;;;5.30;3.00;;;;;;;17.03;56.31;101054.06;4946566;28;20218;-72
2022/06/16 00:31:19;;;;;;;5.03;3.30;;;;;;;16.99;56.37;101055.34;4949568;28;20660;-72
2022/06/16 00:33:46;;;;;;;4.73;3.07;;;;;;;16.95;56.25;101049.34;4939019;28;20246;-71
2022/06/16 00:36:13;;;;;;;5.70;2.83;;;;;;;16.89;56.35;101049.84;4943110;28;20215;-70
2022/06/16 00:38:40;;;;;;;3.70;3.03;;;;;;;16.84;56.45;101052.06;4945060;28;20304;-72
2022/06/16 00:41:08;;;;;;;5.03;3.00;;;;;;;16.76;56.45;101051.88;4938990;28;20325;-71
2022/06/16 00:43:35;;;;;;;4.83;2.87;;;;;;;16.70;56.60;101046.13;4950584;28;20230;-72
2022/06/16 00:46:05;;;;;;;3.30;2.80;;;;;;;16.64;56.64;101042.13;4939858;28;20308;-72
2022/06/16 00:48:35;;;;;;;5.13;3.07;;;;;;;16.58;56.62;101035.38;4946736;28;20210;-71
2022/06/16 00:51:07;;;;;;;6.03;2.67;;;;;;;16.55;56.90;101027.56;4946541;28;20239;-72
2022/06/16 00:53:35;;;;;;;3.87;3.17;;;;;;;16.53;57.14;101020.59;4951903;28;20232;-70
2022/06/16 00:56:02;;;;;;;4.27;3.20;;;;;;;16.50;57.03;101020.84;4940797;28;20216;-72
2022/06/16 00:58:30;;;;;;;3.50;3.17;;;;;;;16.47;56.82;101021.13;4946410;28;20221;-72
2022/06/16 01:00:57;;;;;;;6.00;3.10;;;;;;;16.45;57.17;101031.13;4942234;28;20685;-71
2022/06/16 01:06:22;;;;;;;4.20;3.07;;;;;;;16.43;57.63;101027.72;4943632;28;20241;-71
2022/06/16 01:08:51;;;;;;;3.00;2.77;;;;;;;16.41;57.63;101041.28;4946900;28;20206;-72
2022/06/16 01:14:23;;;;;;;3.53;2.80;;;;;;;16.38;57.32;101052.28;4946156;28;20220;-72
2022/06/16 01:16:54;;;;;;;4.63;3.17;;;;;;;16.32;57.32;101050.06;4944150;28;20212;-71
2022/06/16 01:19:42;;;;;;;6.60;3.10;;;;;;;16.25;57.51;101035.44;4948199;28;20224;-72
2022/06/16 01:22:15;;;;;;;3.73;2.60;;;;;;;16.21;57.85;101037.53;4946582;28;20261;-71
2022/06/16 01:24:57;;;;;;;5.63;3.17;;;;;;;16.17;57.85;101045.94;4947710;28;20210;-72
2022/06/16 01:27:38;;;;;;;5.30;3.13;;;;;;;16.11;58.11;101070.63;4943323;28;20225;-72
2022/06/16 01:30:10;;;;;;;4.10;2.80;;;;;;;16.04;58.34;101072.09;4946769;28;20209;-72
2022/06/16 01:32:48;;;;;;;3.97;2.67;;;;;;;15.98;58.57;101084.16;4947104;28;20724;-72
2022/06/16 01:35:23;;;;;;;5.20;2.87;;;;;;;15.89;58.48;101080.41;4949174;28;20215;-72
2022/06/16 01:38:00;;;;;;;4.73;3.20;;;;;;;15.84;58.86;101065.59;4950530;28;20214;-72
2022/06/16 01:40:32;;;;;;;3.97;2.70;;;;;;;15.77;59.13;101043.75;4944847;28;20204;-72
2022/06/16 01:43:05;;;;;;;4.13;2.87;;;;;;;15.73;59.08;101031.56;4945025;28;20252;-72
2022/06/16 01:45:41;;;;;;;4.17;3.07;;;;;;;15.70;59.32;101018.38;4941359;28;20856;-71
2022/06/16 01:48:11;;;;;;;3.73;3.00;;;;;;;15.68;59.47;101012.25;4941205;28;20255;-72
2022/06/16 01:50:45;;;;;;;3.80;3.10;;;;;;;15.65;59.62;101007.13;4954793;28;20205;-72
2022/06/16 01:53:17;;;;;;;3.67;2.80;;;;;;;15.65;59.79;101009.81;4945400;28;20234;-72
2022/06/16 01:55:49;;;;;;;4.50;3.00;;;;;;;15.65;59.88;101007.13;4950300;28;20224;-72
2022/06/16 01:58:20;;;;;;;6.53;3.37;;;;;;;15.67;59.72;101017.75;4952029;28;20205;-72
2022/06/16 02:00:51;;;;;;;4.03;3.10;;;;;;;15.65;59.66;101030.44;4944896;28;20340;-71
2022/06/16 02:03:23;;;;;;;4.37;3.10;;;;;;;15.63;59.42;101033.22;4943975;28;20336;-71
2022/06/16 02:05:54;;;;;;;5.27;3.17;;;;;;;15.61;59.68;101052.16;4946917;28;20212;-71
2022/06/16 02:08:25;;;;;;;3.90;3.20;;;;;;;15.58;60.01;101057.78;4948506;28;20217;-71
2022/06/16 02:10:56;;;;;;;4.37;3.20;;;;;;;15.55;59.52;101068.75;4941340;28;20218;-71
2022/06/16 02:13:26;;;;;;;5.50;3.20;;;;;;;15.49;59.64;101061.13;4945564;28;20221;-72
2022/06/16 02:16:00;;;;;;;3.13;2.73;;;;;;;15.43;59.48;101050.00;4939987;28;20219;-71
2022/06/16 02:18:30;;;;;;;4.53;2.90;;;;;;;15.39;60.00;101041.34;4943394;28;20208;-71
2022/06/16 02:21:05;;;;;;;7.57;3.30;;;;;;;15.36;59.93;101048.78;4947359;28;20261;-72
2022/06/16 02:23:32;;;;;;;5.20;2.90;;;;;;;15.31;59.86;101050.94;4946534;28;20233;-72
2022/06/16 02:26:00;;;;;;;6.77;3.17;;;;;;;15.24;60.16;101046.03;4944918;28;20292;-71
2022/06/16 02:28:28;;;;;;;4.67;3.13;;;;;;;15.19;60.52;101050.06;4945583;28;20761;-71
2022/06/16 02:31:16;;;;;;;4.47;3.20;;;;;;;15.15;60.67;101060.19;4941637;28;20795;-71
2022/06/16 02:33:54;;;;;;;3.73;2.87;;;;;;;15.10;60.99;101064.16;4946461;28;20233;-72
2022/06/16 02:36:34;;;;;;;6.47;3.23;;;;;;;15.05;60.91;101053.78;4943330;28;20711;-72
2022/06/16 02:39:14;;;;;;;4.07;3.00;;;;;;;15.00;61.74;101066.72;4945479;28;20205;-71
2022/06/16 02:41:56;;;;;;;5.17;2.97;;;;;;;14.96;62.08;101061.69;4940878;28;20237;-72
2022/06/16 02:44:34;;;;;;;3.30;2.80;;;;;;;14.91;61.82;101062.88;4935878;28;20210;-72
2022/06/16 02:47:06;;;;;;;6.37;3.27;;;;;;;14.90;61.98;101062.97;4946719;28;20209;-72
2022/06/16 02:49:41;;;;;;;3.57;2.80;;;;;;;14.87;62.46;101063.22;4938475;28;20604;-72
2022/06/16 02:52:20;;;;;;;6.40;2.87;;;;;;;14.82;62.50;101060.91;4944560;28;20246;-71
2022/06/16 02:54:53;;;;;;;3.90;3.00;;;;;;;14.79;62.39;101068.31;4944781;28;20212;-71
2022/06/16 02:57:30;;;;;;;3.33;3.03;;;;;;;14.74;62.32;101057.06;4941868;28;20703;-71
2022/06/16 03:00:01;;;;;;;4.87;3.23;;;;;;;14.70;62.48;101052.88;4946948;28;20580;-71
2022/06/16 03:02:30;;;;;;;3.77;2.73;;;;;;;14.70;62.40;101066.28;4945882;28;20240;-72
2022/06/16 03:04:59;;;;;;;5.63;3.30;;;;;;;14.66;62.66;101051.44;4944622;28;20216;-72
2022/06/16 03:07:28;;;;;;;4.57;3.63;;;;;;;14.65;62.68;101047.03;4946255;28;20645;-72
2022/06/16 03:09:55;;;;;;;3.67;2.77;;;;;;;14.64;62.91;101051.53;4941808;28;20346;-71
2022/06/16 03:12:22;;;;;;;6.10;3.37;;;;;;;14.66;62.85;101054.09;4949670;28;20629;-71
2022/06/16 03:14:48;;;;;;;3.93;2.90;;;;;;;14.65;62.92;101060.44;4947376;28;20205;-72
2022/06/16 03:17:15;;;;;;;3.73;3.07;;;;;;;14.64;62.37;101053.34;4943959;28;20212;-72
2022/06/16 03:19:44;;;;;;;6.27;3.07;;;;;;;14.62;62.89;101060.66;4947785;28;20213;-72
2022/06/16 03:22:11;;;;;;;5.47;3.23;;;;;;;14.61;62.67;101050.91;4942067;28;20239;-72
2022/06/16 03:24:38;;;;;;;4.93;3.07;;;;;;;14.61;63.27;101024.09;4946649;28;20679;-72
2022/06/16 03:27:06;;;;;;;5.33;2.93;;;;;;;14.59;63.24;101010.78;4944922;28;20267;-71
2022/06/16 03:29:33;;;;;;;6.37;3.27;;;;;;;14.58;63.16;101033.22;4950807;28;20209;-72
2022/06/16 03:31:59;;;;;;;5.97;3.13;;;;;;;14.56;63.21;101052.09;4943872;28;20222;-72
2022/06/16 03:34:26;;;;;;;3.50;2.87;;;;;;;14.56;63.47;101062.81;4936146;28;20216;-71
2022/06/16 03:36:54;;;;;;;5.27;3.30;;;;;;;14.54;63.62;101067.41;4941501;28;20205;-71
2022/06/16 03:39:21;;;;;;;5.37;3.30;;;;;;;14.54;63.50;101072.78;4941771;28;20213;-72
2022/06/16 03:41:47;;;;;;;4.20;3.10;;;;;;;14.51;63.55;101075.69;4943459;28;20740;-72
2022/06/16 03:44:14;;;;;;;5.50;3.33;;;;;;;14.50;63.94;101090.06;4945893;28;20227;-72
2022/06/16 03:46:40;;;;;;;4.57;3.20;;;;;;;14.49;63.59;101090.19;4947327;28;20227;-72
2022/06/16 03:49:07;;;;;;;5.00;3.33;;;;;;;14.45;63.84;101086.00;4948520;28;20200;-72
2022/06/16 03:51:34;;;;;;;6.53;3.37;;;;;;;14.42;64.34;101079.03;4948889;28;20205;-72
2022/06/16 03:54:02;;;;;;;4.03;3.10;;;;;;;14.39;63.93;101084.59;4949269;28;20513;-72
2022/06/16 03:56:29;;;;;;;5.90;3.10;;;;;;;14.36;64.49;101087.47;4944582;28;20578;-71
2022/06/16 03:58:57;;;;;;;4.53;3.10;;;;;;;14.34;64.53;101091.22;4949457;28;20200;-71
2022/06/16 04:01:23;;;;;;;3.57;2.93;;;;;;;14.32;64.47;101082.47;4948449;28;20241;-70
2022/06/16 04:04:02;;;;;;;3.97;3.07;;;;;;;14.32;64.90;101079.81;4943699;28;20239;-71
2022/06/16 04:06:30;;;;;;;4.63;2.83;;;;;;;14.31;64.85;101081.63;4949442;28;20223;-72
2022/06/16 04:08:57;;;;;;;4.73;2.90;;;;;;;14.31;65.19;101086.13;4950329;28;20220;-71
2022/06/16 04:11:28;;;;;;;4.67;2.90;;;;;;;14.30;65.15;101079.91;4951933;28;20209;-71
2022/06/16 04:14:00;;;;;;;4.30;3.33;;;;;;;14.31;65.60;101083.44;4943676;28;20210;-70
2022/06/16 04:16:27;;;;;;;4.60;2.97;;;;;;;14.33;65.81;101087.69;4946756;28;20303;-71
2022/06/16 04:18:53;;;;;;;3.33;2.77;;;;;;;14.36;65.70;101092.84;4942154;28;20216;-70
2022/06/16 04:21:20;;;;;;;3.90;3.17;;;;;;;14.38;65.50;101088.22;4950814;28;20204;-71
2022/06/16 04:23:46;;;;;;;2.97;2.67;;;;;;;14.39;65.57;101089.94;4945720;28;20637;-71
2022/06/16 04:26:13;;;;;;;4.13;3.10;;;;;;;14.40;65.57;101089.00;4947916;28;20212;-70
2022/06/16 04:28:41;;;;;;;4.60;3.40;;;;;;;14.41;65.56;101098.75;4944974;28;20221;-71
2022/06/16 04:31:07;;;;;;;4.67;3.10;;;;;;;14.42;65.40;101092.44;4950522;28;20210;-71
2022/06/16 04:33:34;;;;;;;3.83;3.10;;;;;;;14.42;65.79;101089.75;4943888;28;20702;-71
2022/06/16 04:36:00;;;;;;;4.10;3.70;;;;;;;14.42;66.04;101100.47;4940535;28;20258;-71
2022/06/16 04:38:27;;;;;;;5.27;4.00;;;;;;;14.43;66.00;101094.16;4942132;28;20260;-71
2022/06/16 04:40:53;;;;;;;4.53;3.33;;;;;;;14.44;66.04;101103.91;4944208;28;20705;-70
2022/06/16 04:43:20;;;;;;;5.30;3.53;;;;;;;14.46;66.29;101099.31;4938097;28;20240;-70
2022/06/16 04:45:48;;;;;;;4.23;2.97;;;;;;;14.49;66.37;101096.41;4939263;28;20526;-71
2022/06/16 04:48:14;;;;;;;4.53;3.27;;;;;;;14.51;66.06;101098.97;4942633;28;20698;-71
2022/06/16 04:50:41;;;;;;;5.20;3.70;;;;;;;14.53;65.86;101105.06;4936343;28;20210;-71
2022/06/16 04:53:08;;;;;;;5.60;3.23;;;;;;;14.54;65.90;101102.25;4941506;28;20228;-71
2022/06/16 04:55:35;;;;;;;5.50;3.83;;;;;;;14.55;66.21;101101.28;4939296;28;20297;-71
2022/06/16 04:58:01;;;;;;;5.43;3.23;;;;;;;14.57;66.32;101101.19;4938929;28;20205;-70
2022/06/16 05:00:28;;;;;;;4.93;3.63;;;;;;;14.60;66.60;101114.38;4939246;28;20213;-71
2022/06/16 05:02:56;;;;;;;6.03;3.30;;;;;;;14.64;66.48;101120.38;4937581;28;20668;-70
2022/06/16 05:05:22;;;;;;;4.97;3.83;;;;;;;14.66;66.38;101121.97;4934576;28;20225;-70
2022/06/16 05:07:49;;;;;;;4.97;3.00;;;;;;;14.68;66.61;101121.88;4935758;28;20687;-71
2022/06/16 05:10:15;;;;;;;7.63;3.30;;;;;;;14.71;66.66;101130.53;4935066;28;20284;-71
2022/06/16 05:12:42;;;;;;;8.00;4.27;;;;;;;14.75;67.08;101120.44;4935899;28;20224;-71
2022/06/16 05:15:09;;;;;;;5.20;3.33;;;;;;;14.79;67.05;101128.16;4942726;28;20693;-71
2022/06/16 05:17:36;;;;;;;4.13;3.43;;;;;;;14.82;67.22;101141.34;4934561;28;20209;-70
2022/06/16 05:20:04;;;;;;;4.30;3.63;;;;;;;14.86;66.93;101141.97;4941701;28;20217;-71
2022/06/16 05:22:32;;;;;;;3.57;3.17;;;;;;;14.90;66.98;101155.03;4940640;28;20782;-70
2022/06/16 05:24:58;;;;;;;8.57;3.90;;;;;;;14.94;67.33;101156.53;4939236;28;20216;-70
2022/06/16 05:27:25;;;;;;;4.77;3.80;;;;;;;14.99;67.42;101153.50;4939837;28;20216;-70
2022/06/16 05:29:51;;;;;;;4.27;3.37;;;;;;;15.06;67.33;101164.63;4937235;28;20209;-71
2022/06/16 05:32:18;;;;;;;4.90;3.90;;;;;;;15.08;67.23;101163.53;4940562;28;20229;-70
2022/06/16 05:34:44;;;;;;;4.97;3.53;;;;;;;15.12;67.11;101166.84;4944645;28;20211;-70
2022/06/16 05:37:13;;;;;;;6.47;3.70;;;;;;;15.13;66.97;101161.38;4943316;28;20861;-71
2022/06/16 05:39:40;;;;;;;5.57;3.90;;;;;;;15.14;66.78;101163.09;4943216;28;20817;-71
2022/06/16 05:42:08;;;;;;;4.93;3.90;;;;;;;15.18;66.53;101161.91;4942013;28;20855;-71
2022/06/16 05:44:34;;;;;;;4.97;3.30;;;;;;;15.20;66.60;101168.03;4943629;28;20395;-71
2022/06/16 05:47:02;;;;;;;4.70;3.23;;;;;;;15.22;66.50;101163.41;4940295;28;20209;-71
2022/06/16 05:49:28;;;;;;;6.47;4.30;;;;;;;15.27;66.87;101171.09;4941736;28;20211;-70
2022/06/16 05:51:55;;;;;;;6.60;3.70;;;;;;;15.32;66.93;101182.34;4944381;28;20229;-70
2022/06/16 05:54:23;;;;;;;5.40;3.63;;;;;;;15.38;66.76;101189.94;4940479;28;20319;-70
2022/06/16 05:56:49;;;;;;;5.70;3.63;;;;;;;15.45;67.14;101199.22;4946079;28;20346;-70
2022/06/16 05:59:16;;;;;;;3.93;3.30;;;;;;;15.51;67.12;101201.47;4940129;28;20507;-70
2022/06/16 06:01:43;;;;;;;8.47;3.90;;;;;;;15.58;66.82;101204.59;4942618;28;20236;-71
2022/06/16 06:04:10;;;;;;;5.87;3.70;;;;;;;15.67;66.58;101198.50;4998615;23;20265;-68
2022/06/16 06:06:36;;;;;;;7.23;4.10;;;;;;;15.76;66.46;101195.13;4983826;28;20207;-68
2022/06/16 06:17:21;;;;;;;5.33;3.60;;;;;;;16.19;65.38;101189.13;4965084;28;20209;-69
2022/06/16 06:19:48;;;;;;;4.20;3.80;;;;;;;16.31;64.88;101188.13;4965973;28;20205;-69
2022/06/16 06:22:19;;;;;;;8.70;3.50;;;;;;;16.45;64.63;101190.63;4967967;28;21225;-70
2022/06/16 06:24:47;;;;;;;5.53;3.90;;;;;;;16.55;63.89;101188.91;4962977;28;20216;-69
2022/06/16 06:27:19;;;;;;;5.70;3.67;;;;;;;16.65;63.47;101194.44;4966662;28;20799;-69
2022/06/16 06:29:47;;;;;;;5.10;4.00;;;;;;;16.73;63.17;101194.66;4967207;28;20751;-69
2022/06/16 06:32:15;;;;;;;7.60;3.83;;;;;;;16.82;62.67;101199.31;4969107;28;20226;-69
2022/06/16 06:34:42;;;;;;;5.47;4.07;;;;;;;16.90;62.37;101193.31;4965869;28;20224;-69
2022/06/16 06:37:11;;;;;;;4.77;3.60;;;;;;;17.00;62.32;101197.81;4967558;28;20807;-69
2022/06/16 06:39:37;;;;;;;6.80;4.00;;;;;;;17.08;61.95;101194.50;4963853;28;20592;-69
2022/06/16 06:42:04;;;;;;;4.27;3.40;;;;;;;17.16;61.41;101200.13;4964351;28;20591;-69
2022/06/16 06:44:32;;;;;;;4.70;3.47;;;;;;;17.23;60.63;101201.31;4965447;28;20231;-69
2022/06/16 06:46:59;;;;;;;5.07;3.57;;;;;;;17.30;60.29;101201.66;4961553;28;20219;-69
2022/06/16 06:49:25;;;;;;;6.30;3.80;;;;;;;17.38;60.00;101209.13;4962399;28;20214;-69
2022/06/16 06:51:52;;;;;;;5.20;3.60;;;;;;;17.47;59.71;101211.88;4964052;28;20211;-69
2022/06/16 06:54:18;;;;;;;12.97;4.03;;;;;;;17.55;59.26;101209.41;4963937;28;20248;-69
2022/06/16 06:56:46;;;;;;;6.67;3.93;;;;;;;17.61;58.86;101216.13;4965108;28;20725;-69
2022/06/16 06:59:18;;;;;;;4.07;3.50;;;;;;;17.64;58.77;101216.75;4965688;28;20231;-69
2022/06/16 07:01:46;;;;;;;5.57;3.77;;;;;;;17.74;59.15;101213.25;4963395;28;20209;-69
2022/06/16 07:04:13;;;;;;;7.93;3.60;;;;;;;17.82;59.16;101216.19;4964562;28;20264;-69
2022/06/16 07:06:41;;;;;;;4.87;4.07;;;;;;;17.89;58.61;101218.22;4963148;28;20204;-69
2022/06/16 07:09:08;;;;;;;4.33;3.63;;;;;;;17.97;58.68;101218.41;4964372;28;20295;-69
2022/06/16 07:11:34;;;;;;;8.07;3.93;;;;;;;18.04;58.69;101222.31;4967124;28;20205;-69
2022/06/16 07:14:01;;;;;;;4.13;3.50;;;;;;;18.09;58.49;101221.94;4964781;28;20217;-69
2022/06/16 07:16:27;;;;;;;4.70;3.20;;;;;;;18.17;58.32;101221.25;4963016;28;20297;-69
2022/06/16 07:18:55;;;;;;;5.67;3.53;;;;;;;18.24;57.47;101227.84;4964508;28;20205;-69
2022/06/16 07:21:22;;;;;;;9.17;3.50;;;;;;;18.35;56.64;101227.75;4965518;28;20243;-69
2022/06/16 07:23:48;;;;;;;5.83;3.40;;;;;;;18.48;56.43;101219.44;4962332;28;20236;-70
2022/06/16 07:26:15;;;;;;;5.27;3.33;;;;;;;18.61;55.44;101220.97;4964625;28;20220;-69
2022/06/16 07:28:41;;;;;;;4.20;2.63;;;;;;;18.70;55.04;101228.25;4966608;28;20204;-70
2022/06/16 07:31:08;;;;;;;5.83;2.80;;;;;;;18.78;54.23;101232.97;4962843;28;20213;-69
2022/06/16 07:33:34;;;;;;;3.93;2.93;;;;;;;18.87;54.06;101234.84;4966719;28;20234;-69
2022/06/16 07:36:03;;;;;;;4.40;2.23;;;;;;;18.98;53.34;101234.75;4964332;28;20205;-71
2022/06/16 07:38:29;;;;;;;3.40;2.43;;;;;;;19.10;53.10;101238.19;4963661;28;20242;-68
2022/06/16 07:43:37;;;;;;;5.47;3.10;;;;;;;19.43;53.45;101234.28;4963126;28;21651;-69
2022/06/16 07:46:06;;;;;;;5.20;3.03;;;;;;;19.62;52.87;101231.63;4962572;28;20223;-70
2022/06/16 07:48:33;;;;;;;4.83;2.77;;;;;;;19.76;51.13;101241.16;4964518;28;20216;-70
2022/06/16 07:50:59;;;;;;;6.27;2.60;;;;;;;19.84;51.00;101248.56;4964134;28;20700;-70
2022/06/16 07:53:27;;;;;;;3.40;2.67;;;;;;;19.92;50.64;101249.56;4964714;28;20222;-69
2022/06/16 07:55:54;;;;;;;5.43;2.43;;;;;;;19.98;50.65;101256.25;4966674;28;20211;-69
2022/06/16 07:58:20;;;;;;;3.83;2.53;;;;;;;20.09;50.56;101250.69;4961984;28;20226;-70
2022/06/16 08:00:48;;;;;;;11.13;3.13;;;;;;;20.25;50.61;101255.50;4964293;28;20569;-69
2022/06/16 08:03:14;;;;;;;4.33;2.43;;;;;;;20.42;50.68;101260.22;4964368;28;20243;-70
2022/06/16 08:05:41;;;;;;;3.43;2.60;;;;;;;20.59;50.08;101264.88;4963020;28;20208;-70
2022/06/16 08:08:07;;;;;;;3.23;2.40;;;;;;;20.74;49.54;101259.84;4961767;28;20600;-69
2022/06/16 08:10:36;;;;;;;4.53;2.60;;;;;;;20.87;48.88;101265.75;4961550;28;20208;-70
2022/06/16 08:13:03;;;;;;;3.83;2.27;;;;;;;20.97;48.36;101268.41;4962441;28;20228;-67
2022/06/16 08:15:30;;;;;;;4.70;2.60;;;;;;;21.06;47.95;101272.94;4966637;28;20208;-68
2022/06/16 08:17:57;;;;;;;3.20;2.57;;;;;;;21.19;47.55;101278.00;4964222;28;20204;-70
2022/06/16 08:20:24;;;;;;;5.07;2.65;;;;;;;21.29;47.37;101277.00;4965644;28;20200;-69
2022/06/16 08:22:51;;;;;;;4.85;2.58;;;;;;;21.42;47.05;101272.06;4963645;28;20649;-69
2022/06/16 08:25:18;;;;;;;3.90;2.35;;;;;;;21.58;46.39;101271.38;4964333;28;20208;-69
2022/06/16 08:27:49;;;;;;;4.43;2.47;;;;;;;21.70;46.15;101264.72;4965396;28;20208;-70
2022/06/16 08:30:17;;;;;;;3.22;2.60;;;;;;;21.81;45.43;101260.94;4961856;28;20209;-69
2022/06/16 08:32:44;;;;;;;4.18;2.80;;;;;;;21.93;44.97;101269.69;4967428;28;20235;-70
2022/06/16 08:35:12;;;;;;;4.63;2.90;;;;;;;22.07;44.93;101261.03;4964205;28;20250;-70
2022/06/16 08:37:38;;;;;;;3.80;1.98;;;;;;;22.20;44.62;101266.94;4964443;28;20204;-70
2022/06/16 08:40:07;;;;;;;4.05;2.17;;;;;;;22.31;43.99;101257.66;4966147;28;20204;-70
2022/06/16 08:42:40;;;;;;;5.05;2.60;;;;;;;22.40;43.86;101259.41;4965382;28;20228;-70
2022/06/16 08:45:19;;;;;;;9.90;2.80;;;;;;;22.49;43.37;101262.03;4964909;28;20627;-70
2022/06/16 08:47:53;;;;;;;2.63;2.25;;;;;;;22.57;43.18;101255.84;4969415;28;20807;-70
2022/06/16 08:50:28;;;;;;;5.57;2.30;;;;;;;22.68;43.16;101260.13;4965862;28;20221;-69
2022/06/16 08:53:07;;;;;;;5.63;2.95;;;;;;;22.76;42.93;101263.72;4967325;28;20346;-69
2022/06/16 08:55:37;;;;;;;4.78;2.40;;;;;;;22.84;42.80;101271.97;4963539;28;20594;-70
2022/06/16 08:58:13;;;;;;;4.10;2.13;;;;;;;22.94;42.64;101270.97;4965042;28;20287;-70
2022/06/16 09:00:47;;;;;;;4.25;2.75;;;;;;;23.01;42.08;101277.47;4969334;28;20199;-70
2022/06/16 09:03:21;;;;;;;4.82;2.65;;;;;;;23.06;42.00;101267.84;4964609;28;20249;-71
2022/06/16 09:05:54;;;;;;;4.28;2.42;;;;;;;23.15;42.08;101275.00;4966088;28;20230;-70
2022/06/16 09:08:36;;;;;;;6.68;2.28;;;;;;;23.24;41.75;101273.16;4967621;28;20206;-70
2022/06/16 09:11:11;;;;;;;2.78;2.10;;;;;;;23.33;41.64;101269.44;4966878;28;20694;-70
2022/06/16 09:14:07;;;;;;;5.70;2.40;;;;;;;23.41;41.22;101280.38;4968905;28;20219;-70
2022/06/16 09:16:47;;;;;;;5.13;2.83;;;;;;;23.39;40.43;101266.06;4965320;28;20208;-70
2022/06/16 09:19:43;;;;;;;6.35;2.60;;;;;;;23.47;41.43;101270.66;4966409;28;20307;-71
2022/06/16 09:22:27;;;;;;;2.72;2.47;;;;;;;23.51;40.97;101267.50;4966202;28;20203;-69
2022/06/16 09:25:12;;;;;;;3.53;2.38;;;;;;;23.54;40.70;101274.47;4965140;28;20235;-69
2022/06/16 09:27:43;;;;;;;5.75;2.30;;;;;;;23.59;40.61;101279.41;4964381;28;20204;-70
2022/06/16 09:30:13;;;;;;;5.55;2.47;;;;;;;23.66;40.45;101280.44;4963675;28;20473;-70
2022/06/16 09:32:47;;;;;;;4.75;2.30;;;;;;;23.77;40.09;101275.56;4969353;28;20227;-70
2022/06/16 09:35:19;;;;;;;5.93;2.80;;;;;;;23.88;40.00;101274.38;4965035;28;20216;-68
2022/06/16 09:37:52;;;;;;;4.15;2.35;;;;;;;23.94;39.74;101276.41;4967743;28;20750;-70
2022/06/16 09:40:22;;;;;;;3.72;2.40;;;;;;;24.01;40.22;101274.72;4966299;28;20210;-70
2022/06/16 09:42:55;;;;;;;4.07;2.50;;;;;;;24.12;39.09;101287.16;4964809;28;20224;-70
2022/06/16 09:45:27;;;;;;;4.47;2.50;;;;;;;24.19;39.41;101275.38;4964974;28;20463;-70
2022/06/16 09:48:03;;;;;;;4.78;2.20;;;;;;;24.32;38.64;101282.25;4964326;28;20227;-69
2022/06/16 09:50:37;;;;;;;3.42;2.30;;;;;;;24.38;38.38;101278.81;4964437;28;20234;-71
2022/06/16 09:53:09;;;;;;;3.35;2.33;;;;;;;24.45;38.51;101288.00;4966758;28;20234;-69
2022/06/16 09:55:41;;;;;;;4.20;2.47;;;;;;;24.54;37.70;101279.63;4966457;28;20204;-70
2022/06/16 09:58:15;;;;;;;4.15;2.42;;;;;;;24.64;38.04;101275.91;4964742;28;20212;-69
2022/06/16 10:00:43;;;;;;;3.65;2.40;;;;;;;24.68;38.46;101275.38;4967917;28;20215;-69
2022/06/16 10:03:21;;;;;;;6.38;2.30;;;;;;;24.72;37.69;101274.00;4963805;28;20286;-70
2022/06/16 10:05:59;;;;;;;3.70;2.65;;;;;;;24.71;37.51;101269.59;4967408;28;20211;-70
2022/06/16 10:08:32;;;;;;;2.78;2.30;;;;;;;24.66;37.26;101282.03;4966194;28;20215;-70
2022/06/16 10:11:03;;;;;;;3.50;2.33;;;;;;;24.56;37.33;101291.22;4965375;28;20702;-70
2022/06/16 10:13:35;;;;;;;7.05;2.53;;;;;;;24.49;37.68;101292.09;4964294;28;20223;-69
2022/06/16 10:16:04;;;;;;;3.53;2.17;;;;;;;24.44;37.51;101291.75;4965592;28;20207;-70
2022/06/16 10:18:32;;;;;;;4.68;2.53;;;;;;;24.46;37.91;101295.16;4962692;28;20215;-70
2022/06/16 10:20:59;;;;;;;5.43;2.45;;;;;;;24.46;38.06;101297.88;4966337;28;20197;-70
2022/06/16 10:23:30;;;;;;;5.20;2.70;;;;;;;24.49;38.33;101303.00;4963861;28;20232;-70
2022/06/16 10:25:58;;;;;;;3.63;2.60;;;;;;;24.55;38.77;101296.84;4964131;28;20256;-70
2022/06/16 10:28:29;;;;;;;4.10;2.42;;;;;;;24.59;38.32;101303.66;4961564;28;20211;-70
2022/06/16 10:30:57;;;;;;;3.38;2.35;;;;;;;24.57;38.00;101297.50;4965294;28;20223;-68
2022/06/16 10:33:25;;;;;;;3.50;2.47;;;;;;;24.61;37.79;101289.84;4964775;28;20239;-70
2022/06/16 10:35:57;;;;;;;3.50;2.17;;;;;;;24.64;37.63;101297.69;4964545;28;20226;-69
2022/06/16 10:38:32;;;;;;;4.28;2.15;;;;;;;24.65;37.80;101286.63;4966284;28;20704;-70
2022/06/16 10:41:01;;;;;;;5.47;2.80;;;;;;;24.71;37.04;101295.97;4962459;28;20304;-70
2022/06/16 10:43:29;;;;;;;3.25;2.63;;;;;;;24.75;36.57;101302.75;4966523;28;20238;-71
2022/06/16 10:46:00;;;;;;;4.10;2.38;;;;;;;24.76;36.95;101290.84;4965322;28;20208;-70
2022/06/16 10:48:31;;;;;;;4.70;1.92;;;;;;;24.79;36.93;101304.13;4966572;28;20218;-70
2022/06/16 10:51:10;;;;;;;5.03;2.10;;;;;;;24.85;36.85;101290.66;4963770;28;20211;-70
2022/06/16 10:53:41;;;;;;;3.95;2.50;;;;;;;24.94;36.53;101296.97;4963968;28;20222;-71
2022/06/16 10:56:11;;;;;;;4.68;2.15;;;;;;;25.03;36.69;101292.34;4964874;28;20263;-70
2022/06/16 10:58:48;;;;;;;2.53;2.08;;;;;;;25.05;36.38;101298.47;4965568;28;20529;-70
2022/06/16 11:01:18;;;;;;;3.70;2.60;;;;;;;25.09;37.25;101306.09;4966176;28;20207;-70
2022/06/16 11:03:46;;;;;;;3.00;2.55;;;;;;;25.13;37.04;101296.56;4962275;28;20244;-69
2022/06/16 11:06:16;;;;;;;4.05;2.83;;;;;;;25.11;36.94;101314.09;4961541;28;20604;-69
2022/06/16 11:08:47;;;;;;;6.15;2.15;;;;;;;25.07;37.21;101310.91;4965159;28;20807;-69
2022/06/16 11:11:17;;;;;;;3.75;2.10;;;;;;;25.13;36.59;101314.78;4966360;28;20213;-70
2022/06/16 11:13:48;;;;;;;3.63;2.30;;;;;;;25.16;36.26;101311.72;4966301;28;20397;-70
2022/06/16 11:16:26;;;;;;;3.88;1.95;;;;;;;25.13;36.48;101314.78;4963288;28;20275;-69
2022/06/16 11:18:56;;;;;;;4.70;2.40;;;;;;;25.12;35.87;101319.38;4965191;28;20212;-69
2022/06/16 11:21:28;;;;;;;2.15;1.52;;;;;;;25.13;36.15;101320.22;4963017;28;20623;-69
2022/06/16 11:23:57;;;;;;;4.32;1.98;;;;;;;25.22;36.81;101322.78;4964586;28;20227;-70
2022/06/16 11:26:32;;;;;;;3.97;2.45;;;;;;;25.31;36.27;101320.84;4960231;28;20969;-70
2022/06/16 11:29:02;;;;;;;3.50;2.00;;;;;;;25.34;36.18;101316.91;4966146;28;20210;-71
2022/06/16 11:31:38;;;;;;;3.05;1.95;;;;;;;25.37;35.97;101314.69;4964485;28;20200;-71
2022/06/16 11:34:14;;;;;;;2.60;2.17;;;;;;;25.39;35.88;101318.09;4963898;28;20275;-70
2022/06/16 11:36:54;;;;;;;5.03;2.10;;;;;;;25.40;36.31;101318.94;4964094;28;20580;-70
2022/06/16 11:39:27;;;;;;;3.67;2.00;;;;;;;25.39;35.63;101323.56;4963853;28;20208;-71
2022/06/16 11:41:55;;;;;;;2.85;2.00;;;;;;;25.35;35.52;101316.75;4964011;28;20207;-69
2022/06/16 11:44:39;;;;;;;3.65;1.77;;;;;;;25.30;35.62;101316.41;4964567;28;20272;-70
2022/06/16 11:47:14;;;;;;;4.38;2.03;;;;;;;25.25;35.62;101318.84;4963383;28;20199;-70
2022/06/16 11:49:46;;;;;;;5.00;2.17;;;;;;;25.23;35.88;101327.19;4964423;28;20207;-69
2022/06/16 11:52:24;;;;;;;3.28;1.67;;;;;;;25.26;36.05;101328.69;4965183;28;20707;-70
2022/06/16 11:55:01;;;;;;;4.00;1.73;;;;;;;25.35;35.70;101321.34;4962116;28;20472;-70